Aérodrome :
LOGIN :

S'inscrire | Disclaimer

   EN    FR    IT 

 










Légende :    VFR   VFR Marginal   IFR   IFR Intensif   IFR Très Intensif
Visi : 
Plafond : 
>= 8 km
>= 3000ft
5 à 8 km
1000 à 3000 ft
1500m à 5 km
500 à 1000 ft
800 à 1500m
200 à 500 ft
< 800m
< 200 ft
Symboles :   Orages  Brouillard  Fortes neiges  Fortes précipitations  Vent > 20 kt
SIGMETs :   Divers  Orages  Givrage  Turbulence  Onde Orograph.  Cendres Volcan.






- Altitude de l'aérodrome : 574 ft
- Code IATA : TEQ


LTBU - Corlu

DERNIER METAR :
  • 190050Z 02011KT 9999 BKN033 04/02 Q1023 RMK RWY22 01010KT

METARs EXPIRÉS :
  • 190020Z 02009KT 9999 BKN033 04/02 Q1023 RMK RWY22 01010KT
  • 182350Z 01008KT 9999 BKN033 04/02 Q1023 RERA RMK RWY22 36009KT
  • 182320Z 02011KT 9999 -RA BKN030 04/02 Q1023
  • 182250Z 02009KT 9999 -RA SCT017 BKN028 04/02 Q1023 RMK RWY22 02007KT
  • 182220Z 03010KT 9999 -RA FEW017 BKN025 04/02 Q1023 RMK RWY22 03008KT
  • 182212Z 04011KT 9999 -RA BKN027 05/02 Q1023 RMK RWY22 04010KT

TAF TAF LTBU
Valide du 19 à 00h jusqu'au 20 à 00h UTC


182240Z 1900/1924 01009KT 9999 FEW017 BKN025
TEMPO 1900/1903 -RA
TEMPO 1903/1907 -RA
TEMPO 1911/1915 -RA
TEMPO 1919/1923 -RA
BECMG 1922/1924 35015G25KT



MET'MAP, la Météo Aéronautique d'un coup d'oeil ! - Copyright ORBIFLY Décembre 2007 - Disclaimer

ORBIFLY MET'MAP TEAM :

Programmation & Développement : Alexandra Zaïnal
Sur une idée originale de : Baudouin d'Aumeries
Assistance à la programmation : Marc-Olivier Méhu
Soutien technique & logistique : Manuel Goepfert

Contact : metmap@orbifly.com




SOURCES & CREDITS :

   NOAA